This is the latest recevied weather packets stored in our database for station/object DC4AT. If no packets are shown the sender has not sent any weather packets the latest 10 day(s).
| Time | Temp. | Humidity | Pressure | Rain* | Wind** | Luminosity | Snow |
|---|---|---|---|---|---|---|---|
| 1777466033 | 13.89° C | 36% | 1028.2 hPa | 0 mm | - | 687 W/m² | - |
| 1777465433 | 14.44° C | 35% | 1028.3 hPa | 0 mm | - | 696 W/m² | - |
| 1777464833 | 13.89° C | 39% | 1028.2 hPa | 0 mm | - | 698 W/m² | - |
| 1777464233 | 13.89° C | 35% | 1028.2 hPa | 0 mm | - | 703 W/m² | - |
| 1777463633 | 13.89° C | 35% | 1028.2 hPa | 0 mm | - | 707 W/m² | - |
| 1777463033 | 13.89° C | 36% | 1028.3 hPa | 0 mm | - | 712 W/m² | - |
| 1777462433 | 13.89° C | 36% | 1028.3 hPa | 0 mm | - | 712 W/m² | - |
| 1777461833 | 13.33° C | 34% | 1028.3 hPa | 0 mm | - | 712 W/m² | - |
| 1777461233 | 13.33° C | 35% | 1028.3 hPa | 0 mm | - | 714 W/m² | - |
| 1777460633 | 13.89° C | 34% | 1028.3 hPa | 0 mm | - | 708 W/m² | - |
| 1777460033 | 13.33° C | 35% | 1028.4 hPa | 0 mm | - | 707 W/m² | - |
| 1777459433 | 13.33° C | 35% | 1028.4 hPa | 0 mm | - | 708 W/m² | - |
| 1777458833 | 13.33° C | 36% | 1028.3 hPa | 0 mm | - | 698 W/m² | - |
| 1777457633 | 13.33° C | 37% | 1028.2 hPa | 0 mm | - | 682 W/m² | - |
| 1777457033 | 13.33° C | 36% | 1028.4 hPa | 0 mm | - | 675 W/m² | - |
| 1777455233 | 13.33° C | 43% | 1028.2 hPa | 0 mm | - | 645 W/m² | - |
| 1777454633 | 12.78° C | 44% | 1028.2 hPa | 0 mm | - | 631 W/m² | - |
| 1777454033 | 12.22° C | 48% | 1028.3 hPa | 0 mm | - | 613 W/m² | - |
| 1777453433 | 12.22° C | 51% | 1028.2 hPa | 0 mm | - | 601 W/m² | - |
| 1777452833 | 11.67° C | 51% | 1028.2 hPa | 0 mm | - | 580 W/m² | - |
| 1777452233 | 11.11° C | 54% | 1028.3 hPa | 0 mm | - | 568 W/m² | - |
| 1777451633 | 11.11° C | 55% | 1028.2 hPa | 0 mm | - | 548 W/m² | - |
| 1777451033 | 11.11° C | 55% | 1028.3 hPa | 0 mm | - | 529 W/m² | - |
| 1777450433 | 10.56° C | 56% | 1028.3 hPa | 0 mm | - | 515 W/m² | - |
| 1777449833 | 10.56° C | 56% | 1028.3 hPa | 0 mm | - | 494 W/m² | - |
* Rain latest hour (hover to see other rain measurements)
** Current wind speed in m/s (hover to see current wind gust speed)